sensor_id;sensor_type;location;lat;lon;timestamp;temperature;humidity
9941;DHT22;5009;50.656;7.188;2023-06-10T03:41:50;17.00;99.90
9941;DHT22;5009;50.656;7.188;2023-06-10T03:44:16;17.10;99.90
9941;DHT22;5009;50.656;7.188;2023-06-10T03:46:42;17.10;99.90
9941;DHT22;5009;50.656;7.188;2023-06-10T03:49:08;17.10;99.90
9941;DHT22;5009;50.656;7.188;2023-06-10T03:51:35;17.20;99.90
9941;DHT22;5009;50.656;7.188;2023-06-10T03:54:01;17.30;99.90
9941;DHT22;5009;50.656;7.188;2023-06-10T03:56:26;17.30;99.90
9941;DHT22;5009;50.656;7.188;2023-06-10T03:58:52;17.30;99.90
9941;DHT22;5009;50.656;7.188;2023-06-10T04:01:17;17.30;99.90
9941;DHT22;5009;50.656;7.188;2023-06-10T04:03:47;17.40;99.90
9941;DHT22;5009;50.656;7.188;2023-06-10T04:06:14;17.50;99.90
9941;DHT22;5009;50.656;7.188;2023-06-10T04:08:39;17.50;99.90
9941;DHT22;5009;50.656;7.188;2023-06-10T04:11:05;17.60;99.90
9941;DHT22;5009;50.656;7.188;2023-06-10T04:13:31;17.50;99.90
9941;DHT22;5009;50.656;7.188;2023-06-10T04:15:57;17.60;99.90
9941;DHT22;5009;50.656;7.188;2023-06-10T04:18:22;17.70;99.90
9941;DHT22;5009;50.656;7.188;2023-06-10T04:20:48;17.70;99.90
9941;DHT22;5009;50.656;7.188;2023-06-10T04:23:13;17.80;99.90
9941;DHT22;5009;50.656;7.188;2023-06-10T04:25:39;17.90;99.90
9941;DHT22;5009;50.656;7.188;2023-06-10T04:28:05;18.10;99.90
9941;DHT22;5009;50.656;7.188;2023-06-10T04:30:30;18.20;99.90
9941;DHT22;5009;50.656;7.188;2023-06-10T04:32:56;18.30;99.90
9941;DHT22;5009;50.656;7.188;2023-06-10T04:35:22;18.60;99.90
9941;DHT22;5009;50.656;7.188;2023-06-10T04:37:48;18.80;99.90
9941;DHT22;5009;50.656;7.188;2023-06-10T04:40:14;18.90;99.90
9941;DHT22;5009;50.656;7.188;2023-06-10T04:42:41;19.10;99.50
9941;DHT22;5009;50.656;7.188;2023-06-10T04:45:07;19.30;99.00
9941;DHT22;5009;50.656;7.188;2023-06-10T04:47:33;19.60;98.30
9941;DHT22;5009;50.656;7.188;2023-06-10T04:49:59;19.80;97.70
9941;DHT22;5009;50.656;7.188;2023-06-10T04:52:25;20.00;97.40
9941;DHT22;5009;50.656;7.188;2023-06-10T04:54:51;20.20;97.20
9941;DHT22;5009;50.656;7.188;2023-06-10T04:57:16;20.40;96.50
9941;DHT22;5009;50.656;7.188;2023-06-10T04:59:42;20.70;96.10
9941;DHT22;5009;50.656;7.188;2023-06-10T05:02:07;21.10;95.50
9941;DHT22;5009;50.656;7.188;2023-06-10T05:04:33;21.50;94.70
9941;DHT22;5009;50.656;7.188;2023-06-10T05:06:58;22.00;93.90
9941;DHT22;5009;50.656;7.188;2023-06-10T05:09:24;22.90;92.90
9941;DHT22;5009;50.656;7.188;2023-06-10T05:11:51;23.80;91.50
9941;DHT22;5009;50.656;7.188;2023-06-10T05:14:18;24.80;90.10
9941;DHT22;5009;50.656;7.188;2023-06-10T05:16:44;26.10;86.70
9941;DHT22;5009;50.656;7.188;2023-06-10T05:19:10;27.40;82.30
9941;DHT22;5009;50.656;7.188;2023-06-10T05:21:35;28.70;78.00
9941;DHT22;5009;50.656;7.188;2023-06-10T05:24:01;29.90;73.70
9941;DHT22;5009;50.656;7.188;2023-06-10T05:26:27;31.10;69.10
9941;DHT22;5009;50.656;7.188;2023-06-10T05:28:54;31.70;64.50
9941;DHT22;5009;50.656;7.188;2023-06-10T05:31:19;32.80;60.00
9941;DHT22;5009;50.656;7.188;2023-06-10T05:33:45;33.60;58.00
9941;DHT22;5009;50.656;7.188;2023-06-10T05:36:10;34.30;55.90
9941;DHT22;5009;50.656;7.188;2023-06-10T05:38:36;34.90;54.40
9941;DHT22;5009;50.656;7.188;2023-06-10T05:41:01;35.40;53.00
9941;DHT22;5009;50.656;7.188;2023-06-10T05:43:27;36.00;52.20
9941;DHT22;5009;50.656;7.188;2023-06-10T05:45:53;36.60;50.50
9941;DHT22;5009;50.656;7.188;2023-06-10T05:48:18;37.00;49.40
9941;DHT22;5009;50.656;7.188;2023-06-10T05:50:45;37.50;48.60
9941;DHT22;5009;50.656;7.188;2023-06-10T05:53:16;37.80;47.80
9941;DHT22;5009;50.656;7.188;2023-06-10T05:55:45;37.00;46.40
9941;DHT22;5009;50.656;7.188;2023-06-10T05:58:12;35.50;47.40
9941;DHT22;5009;50.656;7.188;2023-06-10T06:00:38;35.40;48.10
9941;DHT22;5009;50.656;7.188;2023-06-10T06:03:06;36.60;47.30
9941;DHT22;5009;50.656;7.188;2023-06-10T06:05:32;37.50;46.70
9941;DHT22;5009;50.656;7.188;2023-06-10T06:08:07;38.40;46.00
9941;DHT22;5009;50.656;7.188;2023-06-10T06:10:33;39.00;45.20
9941;DHT22;5009;50.656;7.188;2023-06-10T06:12:59;38.80;44.70
9941;DHT22;5009;50.656;7.188;2023-06-10T06:15:25;39.30;44.00
9941;DHT22;5009;50.656;7.188;2023-06-10T06:17:51;39.50;43.40
9941;DHT22;5009;50.656;7.188;2023-06-10T06:20:22;40.00;42.90
9941;DHT22;5009;50.656;7.188;2023-06-10T06:22:48;40.20;42.40
9941;DHT22;5009;50.656;7.188;2023-06-10T06:25:14;40.60;42.20
9941;DHT22;5009;50.656;7.188;2023-06-10T06:27:40;41.00;41.60
9941;DHT22;5009;50.656;7.188;2023-06-10T06:30:06;41.10;41.20
9941;DHT22;5009;50.656;7.188;2023-06-10T06:32:32;41.50;40.80
9941;DHT22;5009;50.656;7.188;2023-06-10T06:34:57;41.50;40.80
9941;DHT22;5009;50.656;7.188;2023-06-10T06:37:24;41.50;40.60
9941;DHT22;5009;50.656;7.188;2023-06-10T06:39:51;41.70;40.10
9941;DHT22;5009;50.656;7.188;2023-06-10T06:42:17;42.00;39.60
9941;DHT22;5009;50.656;7.188;2023-06-10T06:44:43;42.10;39.80
9941;DHT22;5009;50.656;7.188;2023-06-10T06:47:08;42.00;39.40
9941;DHT22;5009;50.656;7.188;2023-06-10T06:49:34;41.70;39.30
9941;DHT22;5009;50.656;7.188;2023-06-10T06:51:59;41.80;39.40
9941;DHT22;5009;50.656;7.188;2023-06-10T06:54:25;41.90;38.80
9941;DHT22;5009;50.656;7.188;2023-06-10T06:56:51;42.10;38.40
9941;DHT22;5009;50.656;7.188;2023-06-10T06:59:16;42.30;38.30
9941;DHT22;5009;50.656;7.188;2023-06-10T07:01:45;42.10;37.10
9941;DHT22;5009;50.656;7.188;2023-06-10T07:04:10;41.90;36.40
9941;DHT22;5009;50.656;7.188;2023-06-10T07:06:36;42.40;36.30
9941;DHT22;5009;50.656;7.188;2023-06-10T07:09:03;42.10;36.30
9941;DHT22;5009;50.656;7.188;2023-06-10T07:11:29;42.10;36.40
9941;DHT22;5009;50.656;7.188;2023-06-10T07:13:55;42.00;36.70
9941;DHT22;5009;50.656;7.188;2023-06-10T07:16:21;41.90;36.60
9941;DHT22;5009;50.656;7.188;2023-06-10T07:18:47;41.00;35.90
9941;DHT22;5009;50.656;7.188;2023-06-10T07:21:12;41.50;36.40
9941;DHT22;5009;50.656;7.188;2023-06-10T07:23:41;42.40;37.00
9941;DHT22;5009;50.656;7.188;2023-06-10T07:26:07;42.50;36.20
9941;DHT22;5009;50.656;7.188;2023-06-10T07:28:33;42.50;35.90
9941;DHT22;5009;50.656;7.188;2023-06-10T07:30:58;42.10;35.90
9941;DHT22;5009;50.656;7.188;2023-06-10T07:33:24;41.70;35.80
9941;DHT22;5009;50.656;7.188;2023-06-10T07:35:49;42.40;35.80
9941;DHT22;5009;50.656;7.188;2023-06-10T07:38:16;42.10;35.40
9941;DHT22;5009;50.656;7.188;2023-06-10T07:40:42;42.60;35.70
9941;DHT22;5009;50.656;7.188;2023-06-10T07:43:07;42.90;35.50
9941;DHT22;5009;50.656;7.188;2023-06-10T07:45:33;41.90;35.00
9941;DHT22;5009;50.656;7.188;2023-06-10T07:47:58;42.20;35.30
9941;DHT22;5009;50.656;7.188;2023-06-10T07:50:24;41.90;35.40
9941;DHT22;5009;50.656;7.188;2023-06-10T07:52:49;41.40;35.10
9941;DHT22;5009;50.656;7.188;2023-06-10T07:55:15;40.80;35.40
9941;DHT22;5009;50.656;7.188;2023-06-10T07:57:41;40.20;36.00
9941;DHT22;5009;50.656;7.188;2023-06-10T08:00:07;39.20;35.90
9941;DHT22;5009;50.656;7.188;2023-06-10T08:02:33;38.30;36.10
9941;DHT22;5009;50.656;7.188;2023-06-10T08:04:59;37.20;36.30
9941;DHT22;5009;50.656;7.188;2023-06-10T08:07:24;36.90;36.80
9941;DHT22;5009;50.656;7.188;2023-06-10T08:09:50;36.70;36.90
9941;DHT22;5009;50.656;7.188;2023-06-10T08:12:16;36.10;36.80
9941;DHT22;5009;50.656;7.188;2023-06-10T08:14:41;36.50;37.20
9941;DHT22;5009;50.656;7.188;2023-06-10T08:17:07;36.50;37.30
9941;DHT22;5009;50.656;7.188;2023-06-10T08:19:33;36.10;37.10
9941;DHT22;5009;50.656;7.188;2023-06-10T08:21:58;36.00;37.50
9941;DHT22;5009;50.656;7.188;2023-06-10T08:24:24;36.20;38.20
9941;DHT22;5009;50.656;7.188;2023-06-10T08:26:49;36.00;37.70
9941;DHT22;5009;50.656;7.188;2023-06-10T08:29:15;35.40;37.70
9941;DHT22;5009;50.656;7.188;2023-06-10T08:31:44;35.40;38.10
9941;DHT22;5009;50.656;7.188;2023-06-10T08:34:09;35.00;37.80
9941;DHT22;5009;50.656;7.188;2023-06-10T08:36:35;34.90;38.50
9941;DHT22;5009;50.656;7.188;2023-06-10T08:39:01;34.80;38.80
9941;DHT22;5009;50.656;7.188;2023-06-10T08:41:28;34.60;38.50
9941;DHT22;5009;50.656;7.188;2023-06-10T08:44:25;34.40;38.80
9941;DHT22;5009;50.656;7.188;2023-06-10T08:46:53;34.70;38.90
9941;DHT22;5009;50.656;7.188;2023-06-10T08:49:23;34.80;38.90
9941;DHT22;5009;50.656;7.188;2023-06-10T08:51:59;34.80;39.00
9941;DHT22;5009;50.656;7.188;2023-06-10T08:54:32;33.90;39.00
9941;DHT22;5009;50.656;7.188;2023-06-10T08:57:01;34.10;39.10
9941;DHT22;5009;50.656;7.188;2023-06-10T08:59:29;34.20;39.10
9941;DHT22;5009;50.656;7.188;2023-06-10T09:01:55;34.50;39.60
9941;DHT22;5009;50.656;7.188;2023-06-10T09:04:20;34.50;39.20
9941;DHT22;5009;50.656;7.188;2023-06-10T09:06:47;34.30;39.50
9941;DHT22;5009;50.656;7.188;2023-06-10T09:09:14;33.90;39.00
9941;DHT22;5009;50.656;7.188;2023-06-10T09:11:42;33.40;39.20
9941;DHT22;5009;50.656;7.188;2023-06-10T09:14:08;32.90;39.20
9941;DHT22;5009;50.656;7.188;2023-06-10T09:16:34;32.90;39.40
9941;DHT22;5009;50.656;7.188;2023-06-10T09:19:00;32.60;39.80
9941;DHT22;5009;50.656;7.188;2023-06-10T09:21:25;32.60;39.50
9941;DHT22;5009;50.656;7.188;2023-06-10T09:23:51;32.50;39.60
9941;DHT22;5009;50.656;7.188;2023-06-10T09:26:17;32.70;40.00
9941;DHT22;5009;50.656;7.188;2023-06-10T09:28:44;32.70;39.60
9941;DHT22;5009;50.656;7.188;2023-06-10T09:31:11;32.80;39.50
9941;DHT22;5009;50.656;7.188;2023-06-10T09:33:38;32.70;39.90
9941;DHT22;5009;50.656;7.188;2023-06-10T09:36:05;32.00;40.00
9941;DHT22;5009;50.656;7.188;2023-06-10T09:38:32;32.30;40.10
9941;DHT22;5009;50.656;7.188;2023-06-10T09:40:58;32.30;40.00
9941;DHT22;5009;50.656;7.188;2023-06-10T09:43:41;32.30;40.10
9941;DHT22;5009;50.656;7.188;2023-06-10T09:46:16;32.60;40.50
9941;DHT22;5009;50.656;7.188;2023-06-10T09:48:44;32.60;40.50
9941;DHT22;5009;50.656;7.188;2023-06-10T09:51:10;32.60;40.60
9941;DHT22;5009;50.656;7.188;2023-06-10T09:53:36;32.60;40.20
9941;DHT22;5009;50.656;7.188;2023-06-10T09:56:02;32.60;40.10
9941;DHT22;5009;50.656;7.188;2023-06-10T09:58:38;32.40;40.30
9941;DHT22;5009;50.656;7.188;2023-06-10T10:01:11;32.30;40.20
9941;DHT22;5009;50.656;7.188;2023-06-10T10:03:44;31.50;40.10
9941;DHT22;5009;50.656;7.188;2023-06-10T10:06:11;31.60;40.60
9941;DHT22;5009;50.656;7.188;2023-06-10T10:08:37;31.70;40.40
9941;DHT22;5009;50.656;7.188;2023-06-10T10:11:03;31.50;40.30
9941;DHT22;5009;50.656;7.188;2023-06-10T10:13:29;31.50;40.60
9941;DHT22;5009;50.656;7.188;2023-06-10T10:16:00;31.50;40.60
9941;DHT22;5009;50.656;7.188;2023-06-10T10:18:29;31.50;40.10
9941;DHT22;5009;50.656;7.188;2023-06-10T10:20:58;31.30;40.30
9941;DHT22;5009;50.656;7.188;2023-06-10T10:23:31;31.30;39.90
9941;DHT22;5009;50.656;7.188;2023-06-10T10:26:00;31.00;39.00
9941;DHT22;5009;50.656;7.188;2023-06-10T10:28:34;31.00;39.00
9941;DHT22;5009;50.656;7.188;2023-06-10T10:31:08;31.00;38.90
9941;DHT22;5009;50.656;7.188;2023-06-10T10:33:53;30.60;38.80
9941;DHT22;5009;50.656;7.188;2023-06-10T10:36:21;30.40;38.80
9941;DHT22;5009;50.656;7.188;2023-06-10T10:38:48;30.40;38.90
9941;DHT22;5009;50.656;7.188;2023-06-10T10:41:15;30.40;38.80
9941;DHT22;5009;50.656;7.188;2023-06-10T10:43:42;30.40;38.80
9941;DHT22;5009;50.656;7.188;2023-06-10T10:46:12;30.60;39.10
9941;DHT22;5009;50.656;7.188;2023-06-10T10:48:39;30.60;39.00
9941;DHT22;5009;50.656;7.188;2023-06-10T10:51:06;30.70;39.40
9941;DHT22;5009;50.656;7.188;2023-06-10T10:53:32;30.30;39.70
9941;DHT22;5009;50.656;7.188;2023-06-10T10:56:12;30.30;39.50
9941;DHT22;5009;50.656;7.188;2023-06-10T10:58:38;30.40;39.30
9941;DHT22;5009;50.656;7.188;2023-06-10T11:01:14;30.40;39.50
9941;DHT22;5009;50.656;7.188;2023-06-10T11:03:46;30.50;40.00
9941;DHT22;5009;50.656;7.188;2023-06-10T11:06:17;30.50;39.30
9941;DHT22;5009;50.656;7.188;2023-06-10T11:11:24;30.60;39.80
9941;DHT22;5009;50.656;7.188;2023-06-10T11:16:31;30.60;39.00
9941;DHT22;5009;50.656;7.188;2023-06-10T11:19:03;30.60;39.10
9941;DHT22;5009;50.656;7.188;2023-06-10T11:21:28;30.60;39.00
9941;DHT22;5009;50.656;7.188;2023-06-10T11:23:57;30.60;39.10
9941;DHT22;5009;50.656;7.188;2023-06-10T11:31:24;30.30;38.30
9941;DHT22;5009;50.656;7.188;2023-06-10T11:33:54;30.30;37.70
9941;DHT22;5009;50.656;7.188;2023-06-10T11:36:20;30.40;37.80
9941;DHT22;5009;50.656;7.188;2023-06-10T11:38:45;30.50;38.30
9941;DHT22;5009;50.656;7.188;2023-06-10T11:41:11;30.50;38.20
9941;DHT22;5009;50.656;7.188;2023-06-10T11:43:44;30.50;38.00
9941;DHT22;5009;50.656;7.188;2023-06-10T11:46:11;30.40;37.50
9941;DHT22;5009;50.656;7.188;2023-06-10T11:48:36;30.30;37.20
9941;DHT22;5009;50.656;7.188;2023-06-10T11:51:08;30.30;37.60
9941;DHT22;5009;50.656;7.188;2023-06-10T11:53:34;30.00;36.50
9941;DHT22;5009;50.656;7.188;2023-06-10T11:56:00;29.90;36.40
9941;DHT22;5009;50.656;7.188;2023-06-10T11:58:25;29.60;36.50
9941;DHT22;5009;50.656;7.188;2023-06-10T12:00:53;29.60;36.60
9941;DHT22;5009;50.656;7.188;2023-06-10T12:03:20;29.60;36.80
9941;DHT22;5009;50.656;7.188;2023-06-10T12:05:59;29.60;36.70
9941;DHT22;5009;50.656;7.188;2023-06-10T12:08:25;29.60;36.70
9941;DHT22;5009;50.656;7.188;2023-06-10T12:10:51;29.80;36.80
9941;DHT22;5009;50.656;7.188;2023-06-10T12:13:17;29.80;36.70
9941;DHT22;5009;50.656;7.188;2023-06-10T12:15:48;29.90;36.50
9941;DHT22;5009;50.656;7.188;2023-06-10T12:18:20;29.90;36.40
9941;DHT22;5009;50.656;7.188;2023-06-10T12:20:46;29.90;36.20
9941;DHT22;5009;50.656;7.188;2023-06-10T12:23:14;29.90;36.20
9941;DHT22;5009;50.656;7.188;2023-06-10T12:25:54;29.90;36.10
9941;DHT22;5009;50.656;7.188;2023-06-10T12:28:23;29.90;36.30
9941;DHT22;5009;50.656;7.188;2023-06-10T12:30:50;30.10;36.90
9941;DHT22;5009;50.656;7.188;2023-06-10T12:33:19;30.10;36.90
9941;DHT22;5009;50.656;7.188;2023-06-10T12:35:49;30.10;36.80
9941;DHT22;5009;50.656;7.188;2023-06-10T12:38:24;29.90;36.80
9941;DHT22;5009;50.656;7.188;2023-06-10T12:40:52;29.90;36.80
9941;DHT22;5009;50.656;7.188;2023-06-10T12:43:22;30.10;37.20
9941;DHT22;5009;50.656;7.188;2023-06-10T12:45:48;30.20;37.10
9941;DHT22;5009;50.656;7.188;2023-06-10T12:48:21;30.10;37.10
9941;DHT22;5009;50.656;7.188;2023-06-10T12:50:55;30.10;37.10
9941;DHT22;5009;50.656;7.188;2023-06-10T12:53:21;30.10;36.60
9941;DHT22;5009;50.656;7.188;2023-06-10T12:55:52;30.00;36.70
9941;DHT22;5009;50.656;7.188;2023-06-10T12:58:22;30.10;36.80
9941;DHT22;5009;50.656;7.188;2023-06-10T13:00:48;30.10;36.80
9941;DHT22;5009;50.656;7.188;2023-06-10T13:03:15;30.10;37.10
9941;DHT22;5009;50.656;7.188;2023-06-10T13:05:41;30.20;37.00
9941;DHT22;5009;50.656;7.188;2023-06-10T13:08:08;30.20;37.40
9941;DHT22;5009;50.656;7.188;2023-06-10T13:10:35;30.30;36.90
9941;DHT22;5009;50.656;7.188;2023-06-10T13:13:01;30.20;36.90
9941;DHT22;5009;50.656;7.188;2023-06-10T13:15:28;30.30;37.40
9941;DHT22;5009;50.656;7.188;2023-06-10T13:17:53;30.20;37.40
9941;DHT22;5009;50.656;7.188;2023-06-10T13:20:19;30.10;36.90
9941;DHT22;5009;50.656;7.188;2023-06-10T13:22:46;30.10;36.90
9941;DHT22;5009;50.656;7.188;2023-06-10T13:25:11;30.10;37.20
9941;DHT22;5009;50.656;7.188;2023-06-10T13:27:37;30.10;37.10
9941;DHT22;5009;50.656;7.188;2023-06-10T13:30:05;30.10;37.20
9941;DHT22;5009;50.656;7.188;2023-06-10T13:32:31;30.10;37.30
9941;DHT22;5009;50.656;7.188;2023-06-10T13:34:56;30.10;37.30
9941;DHT22;5009;50.656;7.188;2023-06-10T13:37:23;29.90;37.40
9941;DHT22;5009;50.656;7.188;2023-06-10T13:39:48;29.90;37.60
9941;DHT22;5009;50.656;7.188;2023-06-10T13:42:17;29.90;37.50
9941;DHT22;5009;50.656;7.188;2023-06-10T13:44:42;29.80;36.90
9941;DHT22;5009;50.656;7.188;2023-06-10T13:47:08;29.80;36.90
9941;DHT22;5009;50.656;7.188;2023-06-10T13:49:34;29.70;37.00
9941;DHT22;5009;50.656;7.188;2023-06-10T13:51:59;29.80;36.90
9941;DHT22;5009;50.656;7.188;2023-06-10T13:54:25;29.80;37.00
9941;DHT22;5009;50.656;7.188;2023-06-10T13:56:51;29.80;36.80
9941;DHT22;5009;50.656;7.188;2023-06-10T13:59:19;29.80;36.50
9941;DHT22;5009;50.656;7.188;2023-06-10T14:01:44;29.80;36.20
9941;DHT22;5009;50.656;7.188;2023-06-10T14:04:10;29.80;36.90
9941;DHT22;5009;50.656;7.188;2023-06-10T14:06:36;29.80;36.70
9941;DHT22;5009;50.656;7.188;2023-06-10T14:09:02;29.70;36.60
9941;DHT22;5009;50.656;7.188;2023-06-10T14:11:27;29.80;36.50
9941;DHT22;5009;50.656;7.188;2023-06-10T14:13:53;29.80;36.70
9941;DHT22;5009;50.656;7.188;2023-06-10T14:16:21;29.90;36.90
9941;DHT22;5009;50.656;7.188;2023-06-10T14:18:47;29.80;36.70
9941;DHT22;5009;50.656;7.188;2023-06-10T14:21:13;29.80;36.80
9941;DHT22;5009;50.656;7.188;2023-06-10T14:23:38;29.80;36.70
9941;DHT22;5009;50.656;7.188;2023-06-10T14:26:04;29.80;37.00
9941;DHT22;5009;50.656;7.188;2023-06-10T14:28:32;29.80;36.40
9941;DHT22;5009;50.656;7.188;2023-06-10T14:30:58;29.80;36.00
9941;DHT22;5009;50.656;7.188;2023-06-10T14:33:23;29.80;36.60
9941;DHT22;5009;50.656;7.188;2023-06-10T14:35:49;29.80;36.40
9941;DHT22;5009;50.656;7.188;2023-06-10T14:38:15;29.80;36.30
9941;DHT22;5009;50.656;7.188;2023-06-10T14:40:40;29.80;36.30
9941;DHT22;5009;50.656;7.188;2023-06-10T14:45:34;29.90;36.70
9941;DHT22;5009;50.656;7.188;2023-06-10T14:47:59;29.90;36.50
9941;DHT22;5009;50.656;7.188;2023-06-10T14:50:25;29.90;36.30
9941;DHT22;5009;50.656;7.188;2023-06-10T14:52:50;29.90;36.30
9941;DHT22;5009;50.656;7.188;2023-06-10T14:55:16;29.80;35.90
9941;DHT22;5009;50.656;7.188;2023-06-10T14:57:41;29.80;35.90
9941;DHT22;5009;50.656;7.188;2023-06-10T15:00:07;29.60;35.80
9941;DHT22;5009;50.656;7.188;2023-06-10T15:02:34;29.60;35.90
9941;DHT22;5009;50.656;7.188;2023-06-10T15:04:59;29.70;36.10
9941;DHT22;5009;50.656;7.188;2023-06-10T15:07:25;29.70;36.40
9941;DHT22;5009;50.656;7.188;2023-06-10T15:09:51;29.70;35.90
9941;DHT22;5009;50.656;7.188;2023-06-10T15:12:16;29.70;36.10
9941;DHT22;5009;50.656;7.188;2023-06-10T15:14:42;29.60;36.20
9941;DHT22;5009;50.656;7.188;2023-06-10T15:17:07;29.60;36.60
9941;DHT22;5009;50.656;7.188;2023-06-10T15:19:33;29.60;36.90
9941;DHT22;5009;50.656;7.188;2023-06-10T15:21:58;29.60;37.00
9941;DHT22;5009;50.656;7.188;2023-06-10T15:24:24;29.70;37.10
9941;DHT22;5009;50.656;7.188;2023-06-10T15:26:50;29.70;37.40
9941;DHT22;5009;50.656;7.188;2023-06-10T15:29:15;29.70;37.60
9941;DHT22;5009;50.656;7.188;2023-06-10T15:31:41;29.60;37.20
9941;DHT22;5009;50.656;7.188;2023-06-10T15:34:06;29.60;37.20
9941;DHT22;5009;50.656;7.188;2023-06-10T15:36:33;29.50;36.80
9941;DHT22;5009;50.656;7.188;2023-06-10T15:39:03;29.50;37.00
9941;DHT22;5009;50.656;7.188;2023-06-10T15:41:31;29.40;36.80
9941;DHT22;5009;50.656;7.188;2023-06-10T15:43:56;29.40;36.40
9941;DHT22;5009;50.656;7.188;2023-06-10T15:46:25;29.50;36.60
9941;DHT22;5009;50.656;7.188;2023-06-10T15:48:51;29.50;36.30
9941;DHT22;5009;50.656;7.188;2023-06-10T15:51:19;29.50;36.00
9941;DHT22;5009;50.656;7.188;2023-06-10T15:53:44;29.50;36.30
9941;DHT22;5009;50.656;7.188;2023-06-10T15:56:13;29.50;36.30
9941;DHT22;5009;50.656;7.188;2023-06-10T15:58:39;29.60;36.70
9941;DHT22;5009;50.656;7.188;2023-06-10T16:01:04;29.60;37.00
9941;DHT22;5009;50.656;7.188;2023-06-10T16:03:31;29.50;37.20
9941;DHT22;5009;50.656;7.188;2023-06-10T16:05:57;29.50;37.30
9941;DHT22;5009;50.656;7.188;2023-06-10T16:08:23;29.50;37.40
9941;DHT22;5009;50.656;7.188;2023-06-10T16:10:48;29.50;37.70
9941;DHT22;5009;50.656;7.188;2023-06-10T16:13:14;29.50;37.30
9941;DHT22;5009;50.656;7.188;2023-06-10T16:15:39;29.40;37.30
9941;DHT22;5009;50.656;7.188;2023-06-10T16:18:05;29.40;37.10
9941;DHT22;5009;50.656;7.188;2023-06-10T16:20:31;29.40;36.70
9941;DHT22;5009;50.656;7.188;2023-06-10T16:22:59;29.40;36.50
9941;DHT22;5009;50.656;7.188;2023-06-10T16:25:24;29.40;36.90
9941;DHT22;5009;50.656;7.188;2023-06-10T16:27:50;29.30;36.60
9941;DHT22;5009;50.656;7.188;2023-06-10T16:30:15;29.30;36.70
9941;DHT22;5009;50.656;7.188;2023-06-10T16:32:41;29.30;36.90
9941;DHT22;5009;50.656;7.188;2023-06-10T16:35:07;29.30;37.10
9941;DHT22;5009;50.656;7.188;2023-06-10T16:37:32;29.30;37.40
9941;DHT22;5009;50.656;7.188;2023-06-10T16:39:58;29.20;37.20
9941;DHT22;5009;50.656;7.188;2023-06-10T16:42:23;29.20;37.30
9941;DHT22;5009;50.656;7.188;2023-06-10T16:44:49;29.20;37.50
9941;DHT22;5009;50.656;7.188;2023-06-10T16:47:15;29.20;37.30
9941;DHT22;5009;50.656;7.188;2023-06-10T16:49:40;29.20;36.90
9941;DHT22;5009;50.656;7.188;2023-06-10T16:52:06;29.10;36.30
9941;DHT22;5009;50.656;7.188;2023-06-10T16:54:32;29.10;36.20
9941;DHT22;5009;50.656;7.188;2023-06-10T16:56:57;29.10;36.50
9941;DHT22;5009;50.656;7.188;2023-06-10T16:59:23;29.10;36.60
9941;DHT22;5009;50.656;7.188;2023-06-10T17:01:48;29.00;36.60
9941;DHT22;5009;50.656;7.188;2023-06-10T17:04:14;29.00;36.80
9941;DHT22;5009;50.656;7.188;2023-06-10T17:06:40;29.00;36.90
9941;DHT22;5009;50.656;7.188;2023-06-10T17:09:06;29.00;37.00
9941;DHT22;5009;50.656;7.188;2023-06-10T17:11:31;29.00;37.10
9941;DHT22;5009;50.656;7.188;2023-06-10T17:13:58;29.00;37.20
9941;DHT22;5009;50.656;7.188;2023-06-10T17:16:24;29.00;37.30
9941;DHT22;5009;50.656;7.188;2023-06-10T17:18:49;29.00;37.50
9941;DHT22;5009;50.656;7.188;2023-06-10T17:21:15;29.00;37.70
9941;DHT22;5009;50.656;7.188;2023-06-10T17:23:41;29.00;37.70
9941;DHT22;5009;50.656;7.188;2023-06-10T17:26:06;29.00;37.90
9941;DHT22;5009;50.656;7.188;2023-06-10T17:28:32;28.90;37.40
9941;DHT22;5009;50.656;7.188;2023-06-10T17:30:57;28.90;37.50
9941;DHT22;5009;50.656;7.188;2023-06-10T17:33:23;28.90;37.60
9941;DHT22;5009;50.656;7.188;2023-06-10T17:35:49;28.80;37.80
9941;DHT22;5009;50.656;7.188;2023-06-10T17:38:15;28.80;37.60
9941;DHT22;5009;50.656;7.188;2023-06-10T17:40:42;28.80;37.60
9941;DHT22;5009;50.656;7.188;2023-06-10T17:43:08;28.80;37.60
9941;DHT22;5009;50.656;7.188;2023-06-10T17:45:34;28.80;37.40
9941;DHT22;5009;50.656;7.188;2023-06-10T17:47:59;28.70;37.10
9941;DHT22;5009;50.656;7.188;2023-06-10T17:50:25;28.70;37.00
9941;DHT22;5009;50.656;7.188;2023-06-10T17:52:50;28.60;37.00
9941;DHT22;5009;50.656;7.188;2023-06-10T17:55:16;28.60;37.00
9941;DHT22;5009;50.656;7.188;2023-06-10T17:57:42;28.60;37.10
9941;DHT22;5009;50.656;7.188;2023-06-10T18:00:07;28.60;37.30
9941;DHT22;5009;50.656;7.188;2023-06-10T18:02:34;28.60;37.40
9941;DHT22;5009;50.656;7.188;2023-06-10T18:04:59;28.60;37.70
9941;DHT22;5009;50.656;7.188;2023-06-10T18:07:25;28.60;37.80
9941;DHT22;5009;50.656;7.188;2023-06-10T18:09:51;28.50;37.90
9941;DHT22;5009;50.656;7.188;2023-06-10T18:12:16;28.50;38.00
9941;DHT22;5009;50.656;7.188;2023-06-10T18:14:44;28.40;37.90
9941;DHT22;5009;50.656;7.188;2023-06-10T18:17:09;28.40;38.00
9941;DHT22;5009;50.656;7.188;2023-06-10T18:19:35;28.30;38.20
9941;DHT22;5009;50.656;7.188;2023-06-10T18:22:01;28.30;38.40
9941;DHT22;5009;50.656;7.188;2023-06-10T18:24:26;28.20;38.50
9941;DHT22;5009;50.656;7.188;2023-06-10T18:26:52;28.30;38.70
9941;DHT22;5009;50.656;7.188;2023-06-10T18:29:17;28.20;38.70
9941;DHT22;5009;50.656;7.188;2023-06-10T18:31:43;28.10;38.90
9941;DHT22;5009;50.656;7.188;2023-06-10T18:34:09;28.10;39.00
9941;DHT22;5009;50.656;7.188;2023-06-10T18:36:34;28.10;39.00
9941;DHT22;5009;50.656;7.188;2023-06-10T18:39:01;28.10;39.20
9941;DHT22;5009;50.656;7.188;2023-06-10T18:41:27;28.10;39.40
9941;DHT22;5009;50.656;7.188;2023-06-10T18:43:53;28.00;39.40
9941;DHT22;5009;50.656;7.188;2023-06-10T18:46:21;28.00;39.70
9941;DHT22;5009;50.656;7.188;2023-06-10T18:48:47;28.00;39.70
9941;DHT22;5009;50.656;7.188;2023-06-10T18:51:14;27.90;39.80
9941;DHT22;5009;50.656;7.188;2023-06-10T18:53:40;27.80;40.10
9941;DHT22;5009;50.656;7.188;2023-06-10T18:56:05;27.80;40.10
9941;DHT22;5009;50.656;7.188;2023-06-10T18:58:31;27.70;40.40
9941;DHT22;5009;50.656;7.188;2023-06-10T19:01:02;27.70;40.40
9941;DHT22;5009;50.656;7.188;2023-06-10T19:03:28;27.70;40.60
9941;DHT22;5009;50.656;7.188;2023-06-10T19:05:55;27.60;40.70
9941;DHT22;5009;50.656;7.188;2023-06-10T19:08:20;27.60;40.80
9941;DHT22;5009;50.656;7.188;2023-06-10T19:10:46;27.50;41.40
9941;DHT22;5009;50.656;7.188;2023-06-10T19:13:12;27.50;41.60
9941;DHT22;5009;50.656;7.188;2023-06-10T19:15:37;27.30;42.20
9941;DHT22;5009;50.656;7.188;2023-06-10T19:18:03;27.30;42.40
9941;DHT22;5009;50.656;7.188;2023-06-10T19:20:28;27.20;42.70
9941;DHT22;5009;50.656;7.188;2023-06-10T19:22:54;27.10;43.40
9941;DHT22;5009;50.656;7.188;2023-06-10T19:25:20;27.10;43.30
9941;DHT22;5009;50.656;7.188;2023-06-10T19:27:46;26.90;43.70
9941;DHT22;5009;50.656;7.188;2023-06-10T19:30:13;26.80;44.30
9941;DHT22;5009;50.656;7.188;2023-06-10T19:32:39;26.70;44.90
9941;DHT22;5009;50.656;7.188;2023-06-10T19:35:05;26.60;45.10
9941;DHT22;5009;50.656;7.188;2023-06-10T19:37:30;26.50;45.20
9941;DHT22;5009;50.656;7.188;2023-06-10T19:39:56;26.30;45.30
9941;DHT22;5009;50.656;7.188;2023-06-10T19:42:22;26.20;45.70
9941;DHT22;5009;50.656;7.188;2023-06-10T19:44:47;26.10;46.30
9941;DHT22;5009;50.656;7.188;2023-06-10T19:47:13;26.00;46.50
9941;DHT22;5009;50.656;7.188;2023-06-10T19:49:39;25.90;46.90
9941;DHT22;5009;50.656;7.188;2023-06-10T19:52:05;25.80;47.00